sensor_id;sensor_type;location;lat;lon;timestamp;pressure;altitude;pressure_sealevel;temperature;humidity
38716;BME280;24833;49.324;8.694;2023-06-10T00:01:46;99379.41;;;21.70;41.44
38716;BME280;24833;49.324;8.694;2023-06-10T00:04:16;99376.97;;;21.69;41.47
38716;BME280;24833;49.324;8.694;2023-06-10T00:06:44;99370.72;;;21.68;41.76
38716;BME280;24833;49.324;8.694;2023-06-10T00:09:11;99376.19;;;21.63;41.99
38716;BME280;24833;49.324;8.694;2023-06-10T00:11:38;99380.28;;;21.61;41.82
38716;BME280;24833;49.324;8.694;2023-06-10T00:14:06;99375.38;;;21.58;42.52
38716;BME280;24833;49.324;8.694;2023-06-10T00:16:33;99373.75;;;21.57;42.33
38716;BME280;24833;49.324;8.694;2023-06-10T00:19:01;99377.03;;;21.54;42.43
38716;BME280;24833;49.324;8.694;2023-06-10T00:21:34;99378.09;;;21.53;42.14
38716;BME280;24833;49.324;8.694;2023-06-10T00:24:08;99374.56;;;21.52;42.04
38716;BME280;24833;49.324;8.694;2023-06-10T00:26:41;99368.63;;;21.50;41.95
38716;BME280;24833;49.324;8.694;2023-06-10T00:29:10;99360.75;;;21.48;42.70
38716;BME280;24833;49.324;8.694;2023-06-10T00:31:38;99365.09;;;21.44;42.72
38716;BME280;24833;49.324;8.694;2023-06-10T00:34:07;99360.22;;;21.41;43.39
38716;BME280;24833;49.324;8.694;2023-06-10T00:36:34;99365.66;;;21.41;43.32
38716;BME280;24833;49.324;8.694;2023-06-10T00:39:02;99359.69;;;21.39;43.37
38716;BME280;24833;49.324;8.694;2023-06-10T00:41:31;99355.34;;;21.38;43.38
38716;BME280;24833;49.324;8.694;2023-06-10T00:44:00;99366.75;;;21.40;43.60
38716;BME280;24833;49.324;8.694;2023-06-10T00:46:28;99364.03;;;21.40;43.24
38716;BME280;24833;49.324;8.694;2023-06-10T00:48:55;99362.38;;;21.39;43.81
38716;BME280;24833;49.324;8.694;2023-06-10T00:51:26;99362.38;;;21.39;43.13
38716;BME280;24833;49.324;8.694;2023-06-10T00:53:54;99362.38;;;21.39;43.49
38716;BME280;24833;49.324;8.694;2023-06-10T00:56:22;99363.50;;;21.38;43.51
38716;BME280;24833;49.324;8.694;2023-06-10T00:58:49;99364.59;;;21.37;44.02
38716;BME280;24833;49.324;8.694;2023-06-10T01:01:17;99366.78;;;21.35;43.93
38716;BME280;24833;49.324;8.694;2023-06-10T01:03:44;99362.97;;;21.36;43.63
38716;BME280;24833;49.324;8.694;2023-06-10T01:06:36;99361.34;;;21.35;43.20
38716;BME280;24833;49.324;8.694;2023-06-10T01:10:10;99356.19;;;21.34;44.10
38716;BME280;24833;49.324;8.694;2023-06-10T01:12:45;99367.59;;;21.31;44.74
38716;BME280;24833;49.324;8.694;2023-06-10T01:15:16;99359.44;;;21.31;44.36
38716;BME280;24833;49.324;8.694;2023-06-10T01:17:55;99361.34;;;21.30;43.84
38716;BME280;24833;49.324;8.694;2023-06-10T01:20:30;99362.94;;;21.26;44.83
38716;BME280;24833;49.324;8.694;2023-06-10T01:22:59;99369.47;;;21.25;44.94
38716;BME280;24833;49.324;8.694;2023-06-10T01:25:37;99353.75;;;21.22;44.63
38716;BME280;24833;49.324;8.694;2023-06-10T01:28:17;99362.97;;;21.21;44.97
38716;BME280;24833;49.324;8.694;2023-06-10T01:33:35;99364.59;;;21.17;44.66
38716;BME280;24833;49.324;8.694;2023-06-10T01:36:03;99364.63;;;21.12;45.26
38716;BME280;24833;49.324;8.694;2023-06-10T01:38:36;99365.41;;;21.12;44.81
38716;BME280;24833;49.324;8.694;2023-06-10T01:41:06;99374.38;;;21.13;44.35
38716;BME280;24833;49.324;8.694;2023-06-10T01:43:34;99371.13;;;21.11;44.69
38716;BME280;24833;49.324;8.694;2023-06-10T01:46:04;99380.38;;;21.10;44.35
38716;BME280;24833;49.324;8.694;2023-06-10T01:48:32;99371.41;;;21.09;44.56
38716;BME280;24833;49.324;8.694;2023-06-10T01:50:59;99377.13;;;21.08;44.60
38716;BME280;24833;49.324;8.694;2023-06-10T01:53:26;99374.94;;;21.05;44.02
38716;BME280;24833;49.324;8.694;2023-06-10T01:55:53;99383.38;;;21.03;44.02
38716;BME280;24833;49.324;8.694;2023-06-10T01:58:21;99381.22;;;21.00;44.10
38716;BME280;24833;49.324;8.694;2023-06-10T02:00:48;99379.03;;;20.97;44.47
38716;BME280;24833;49.324;8.694;2023-06-10T02:03:15;99385.03;;;20.94;44.51
38716;BME280;24833;49.324;8.694;2023-06-10T02:05:43;99388.84;;;20.88;45.03
38716;BME280;24833;49.324;8.694;2023-06-10T02:08:10;99386.13;;;20.83;45.29
38716;BME280;24833;49.324;8.694;2023-06-10T02:10:37;99389.38;;;20.70;45.23
38716;BME280;24833;49.324;8.694;2023-06-10T02:13:04;99378.78;;;20.68;44.96
38716;BME280;24833;49.324;8.694;2023-06-10T02:15:31;99392.06;;;20.59;46.03
38716;BME280;24833;49.324;8.694;2023-06-10T02:17:59;99392.34;;;20.53;45.25
38716;BME280;24833;49.324;8.694;2023-06-10T02:20:27;99396.13;;;20.52;45.54
38716;BME280;24833;49.324;8.694;2023-06-10T02:22:54;99387.97;;;20.41;46.76
38716;BME280;24833;49.324;8.694;2023-06-10T02:25:21;99398.00;;;20.41;46.17
38716;BME280;24833;49.324;8.694;2023-06-10T02:27:49;99393.69;;;20.40;45.10
38716;BME280;24833;49.324;8.694;2023-06-10T02:30:17;99393.94;;;20.33;46.64
38716;BME280;24833;49.324;8.694;2023-06-10T02:32:45;99393.94;;;20.33;45.31
38716;BME280;24833;49.324;8.694;2023-06-10T02:35:17;99397.97;;;20.31;45.64
38716;BME280;24833;49.324;8.694;2023-06-10T02:37:44;99397.97;;;20.26;46.03
38716;BME280;24833;49.324;8.694;2023-06-10T02:40:11;99402.56;;;20.25;45.96
38716;BME280;24833;49.324;8.694;2023-06-10T02:42:39;99411.53;;;20.21;46.51
38716;BME280;24833;49.324;8.694;2023-06-10T02:45:07;99408.00;;;20.15;46.88
38716;BME280;24833;49.324;8.694;2023-06-10T02:47:40;99409.59;;;20.11;47.50
38716;BME280;24833;49.324;8.694;2023-06-10T02:50:08;99412.56;;;20.04;47.73
38716;BME280;24833;49.324;8.694;2023-06-10T02:52:42;99409.31;;;20.02;47.29
38716;BME280;24833;49.324;8.694;2023-06-10T02:55:09;99408.78;;;20.00;46.88
38716;BME280;24833;49.324;8.694;2023-06-10T02:57:39;99408.44;;;19.92;47.83
38716;BME280;24833;49.324;8.694;2023-06-10T03:00:08;99402.47;;;19.84;48.49
38716;BME280;24833;49.324;8.694;2023-06-10T03:02:40;99408.97;;;19.83;47.21
38716;BME280;24833;49.324;8.694;2023-06-10T03:05:09;99413.84;;;19.81;46.91
38716;BME280;24833;49.324;8.694;2023-06-10T03:07:40;99411.66;;;19.78;47.96
38716;BME280;24833;49.324;8.694;2023-06-10T03:10:07;99404.34;;;19.79;46.71
38716;BME280;24833;49.324;8.694;2023-06-10T03:12:38;99413.28;;;19.74;48.45
38716;BME280;24833;49.324;8.694;2023-06-10T03:15:05;99422.22;;;19.75;46.62
38716;BME280;24833;49.324;8.694;2023-06-10T03:17:34;99409.47;;;19.75;46.13
38716;BME280;24833;49.324;8.694;2023-06-10T03:20:02;99418.69;;;19.74;46.92
38716;BME280;24833;49.324;8.694;2023-06-10T03:22:33;99419.22;;;19.71;47.17
38716;BME280;24833;49.324;8.694;2023-06-10T03:25:06;99422.19;;;19.70;47.00
38716;BME280;24833;49.324;8.694;2023-06-10T03:27:34;99417.03;;;19.68;46.36
38716;BME280;24833;49.324;8.694;2023-06-10T03:30:08;99424.34;;;19.68;46.14
38716;BME280;24833;49.324;8.694;2023-06-10T03:32:36;99416.75;;;19.65;46.16
38716;BME280;24833;49.324;8.694;2023-06-10T03:35:07;99427.56;;;19.65;46.10
38716;BME280;24833;49.324;8.694;2023-06-10T03:37:35;99430.56;;;19.63;45.72
38716;BME280;24833;49.324;8.694;2023-06-10T03:40:03;99426.22;;;19.62;45.95
38716;BME280;24833;49.324;8.694;2023-06-10T03:42:32;99428.38;;;19.60;45.90
38716;BME280;24833;49.324;8.694;2023-06-10T03:44:59;99426.72;;;19.59;46.41
38716;BME280;24833;49.324;8.694;2023-06-10T03:47:37;99429.94;;;19.56;45.54
38716;BME280;24833;49.324;8.694;2023-06-10T03:50:08;99428.31;;;19.55;45.67
38716;BME280;24833;49.324;8.694;2023-06-10T03:52:37;99428.59;;;19.53;45.55
38716;BME280;24833;49.324;8.694;2023-06-10T03:55:06;99438.63;;;19.53;46.63
38716;BME280;24833;49.324;8.694;2023-06-10T03:57:34;99431.81;;;19.50;46.17
38716;BME280;24833;49.324;8.694;2023-06-10T04:00:01;99439.13;;;19.50;45.65
38716;BME280;24833;49.324;8.694;2023-06-10T04:02:41;99434.25;;;19.47;46.39
38716;BME280;24833;49.324;8.694;2023-06-10T04:05:25;99440.72;;;19.46;45.63
38716;BME280;24833;49.324;8.694;2023-06-10T04:07:52;99430.97;;;19.45;46.03
38716;BME280;24833;49.324;8.694;2023-06-10T04:10:19;99431.22;;;19.43;45.72
38716;BME280;24833;49.324;8.694;2023-06-10T04:12:46;99429.59;;;19.42;45.44
38716;BME280;24833;49.324;8.694;2023-06-10T04:15:14;99437.72;;;19.42;45.79
38716;BME280;24833;49.324;8.694;2023-06-10T04:17:42;99438.81;;;19.41;45.77
38716;BME280;24833;49.324;8.694;2023-06-10T04:20:10;99442.34;;;19.42;46.97
38716;BME280;24833;49.324;8.694;2023-06-10T04:22:41;99444.22;;;19.41;47.29
38716;BME280;24833;49.324;8.694;2023-06-10T04:25:09;99449.59;;;19.36;47.53
38716;BME280;24833;49.324;8.694;2023-06-10T04:27:38;99450.41;;;19.37;48.00
38716;BME280;24833;49.324;8.694;2023-06-10T04:30:06;99451.22;;;19.37;47.48
38716;BME280;24833;49.324;8.694;2023-06-10T04:32:36;99454.75;;;19.38;47.52
38716;BME280;24833;49.324;8.694;2023-06-10T04:35:06;99454.75;;;19.38;47.47
38716;BME280;24833;49.324;8.694;2023-06-10T04:37:33;99461.25;;;19.37;48.59
38716;BME280;24833;49.324;8.694;2023-06-10T04:40:01;99454.22;;;19.36;48.89
38716;BME280;24833;49.324;8.694;2023-06-10T04:42:29;99459.63;;;19.36;48.67
38716;BME280;24833;49.324;8.694;2023-06-10T04:44:56;99466.66;;;19.37;47.59
38716;BME280;24833;49.324;8.694;2023-06-10T04:47:23;99456.66;;;19.37;48.12
38716;BME280;24833;49.324;8.694;2023-06-10T04:49:50;99469.13;;;19.38;47.33
38716;BME280;24833;49.324;8.694;2023-06-10T04:52:18;99466.16;;;19.40;48.31
38716;BME280;24833;49.324;8.694;2023-06-10T04:54:45;99466.16;;;19.40;48.26
38716;BME280;24833;49.324;8.694;2023-06-10T04:57:12;99475.91;;;19.41;49.45
38716;BME280;24833;49.324;8.694;2023-06-10T04:59:40;99469.91;;;19.39;50.55
38716;BME280;24833;49.324;8.694;2023-06-10T05:02:07;99472.13;;;19.42;48.90
38716;BME280;24833;49.324;8.694;2023-06-10T05:04:34;99475.13;;;19.45;49.08
38716;BME280;24833;49.324;8.694;2023-06-10T05:07:01;99483.00;;;19.52;49.16
38716;BME280;24833;49.324;8.694;2023-06-10T05:09:28;99471.28;;;19.73;49.57
38716;BME280;24833;49.324;8.694;2023-06-10T05:11:55;99474.66;;;20.01;49.16
38716;BME280;24833;49.324;8.694;2023-06-10T05:14:22;99476.38;;;20.27;48.07
38716;BME280;24833;49.324;8.694;2023-06-10T05:16:49;99481.88;;;20.58;47.88
38716;BME280;24833;49.324;8.694;2023-06-10T05:19:19;99480.56;;;20.91;47.08
38716;BME280;24833;49.324;8.694;2023-06-10T05:21:46;99481.41;;;21.22;47.75
38716;BME280;24833;49.324;8.694;2023-06-10T05:24:13;99479.47;;;21.58;46.38
38716;BME280;24833;49.324;8.694;2023-06-10T05:26:40;99477.56;;;21.64;46.51
38716;BME280;24833;49.324;8.694;2023-06-10T05:29:08;99481.53;;;21.97;46.13
38716;BME280;24833;49.324;8.694;2023-06-10T05:31:36;99491.31;;;22.03;45.83
38716;BME280;24833;49.324;8.694;2023-06-10T05:34:03;99489.91;;;22.21;46.03
38716;BME280;24833;49.324;8.694;2023-06-10T05:36:30;99489.53;;;22.43;45.51
38716;BME280;24833;49.324;8.694;2023-06-10T05:38:57;99490.88;;;22.45;45.27
38716;BME280;24833;49.324;8.694;2023-06-10T05:41:27;99488.31;;;22.59;45.58
38716;BME280;24833;49.324;8.694;2023-06-10T05:43:55;99487.97;;;22.76;45.45
38716;BME280;24833;49.324;8.694;2023-06-10T05:46:22;99489.59;;;22.77;45.60
38716;BME280;24833;49.324;8.694;2023-06-10T05:48:49;99485.16;;;22.91;45.18
38716;BME280;24833;49.324;8.694;2023-06-10T05:51:16;99498.06;;;23.15;44.84
38716;BME280;24833;49.324;8.694;2023-06-10T05:53:43;99499.06;;;23.24;44.82
38716;BME280;24833;49.324;8.694;2023-06-10T05:56:14;99502.22;;;23.36;45.24
38716;BME280;24833;49.324;8.694;2023-06-10T05:58:41;99506.53;;;23.42;44.80
38716;BME280;24833;49.324;8.694;2023-06-10T06:01:08;99504.25;;;23.54;44.88
38716;BME280;24833;49.324;8.694;2023-06-10T06:03:35;99514.59;;;23.52;44.74
38716;BME280;24833;49.324;8.694;2023-06-10T06:06:03;99512.84;;;23.67;44.81
38716;BME280;24833;49.324;8.694;2023-06-10T06:08:30;99513.31;;;23.74;44.60
38716;BME280;24833;49.324;8.694;2023-06-10T06:10:58;99510.53;;;23.79;44.55
38716;BME280;24833;49.324;8.694;2023-06-10T06:13:25;99514.03;;;23.84;44.83
38716;BME280;24833;49.324;8.694;2023-06-10T06:15:52;99507.88;;;23.98;44.56
38716;BME280;24833;49.324;8.694;2023-06-10T06:18:19;99513.50;;;24.06;44.36
38716;BME280;24833;49.324;8.694;2023-06-10T06:20:46;99510.72;;;24.11;44.11
38716;BME280;24833;49.324;8.694;2023-06-10T06:23:14;99508.16;;;24.20;44.05
38716;BME280;24833;49.324;8.694;2023-06-10T06:25:41;99505.97;;;24.22;44.55
38716;BME280;24833;49.324;8.694;2023-06-10T06:28:09;99505.59;;;24.29;44.48
38716;BME280;24833;49.324;8.694;2023-06-10T06:30:36;99506.13;;;24.31;44.70
38716;BME280;24833;49.324;8.694;2023-06-10T06:33:03;99510.66;;;24.40;44.24
38716;BME280;24833;49.324;8.694;2023-06-10T06:35:35;99512.91;;;24.57;44.07
38716;BME280;24833;49.324;8.694;2023-06-10T06:38:02;99508.91;;;24.50;44.36
38716;BME280;24833;49.324;8.694;2023-06-10T06:40:31;99519.97;;;24.58;44.37
38716;BME280;24833;49.324;8.694;2023-06-10T06:42:58;99520.41;;;24.65;44.31
38716;BME280;24833;49.324;8.694;2023-06-10T06:45:47;99528.41;;;24.62;44.05
38716;BME280;24833;49.324;8.694;2023-06-10T06:48:14;99530.91;;;24.58;44.64
38716;BME280;24833;49.324;8.694;2023-06-10T06:50:41;99521.91;;;24.58;44.76
38716;BME280;24833;49.324;8.694;2023-06-10T06:53:09;99528.22;;;24.53;44.89
38716;BME280;24833;49.324;8.694;2023-06-10T06:55:36;99522.13;;;24.61;44.21
38716;BME280;24833;49.324;8.694;2023-06-10T06:58:03;99530.97;;;24.53;44.61
38716;BME280;24833;49.324;8.694;2023-06-10T07:00:31;99520.47;;;24.60;44.64
38716;BME280;24833;49.324;8.694;2023-06-10T07:02:59;99524.31;;;24.59;44.61
38716;BME280;24833;49.324;8.694;2023-06-10T07:05:26;99525.75;;;24.57;44.99
38716;BME280;24833;49.324;8.694;2023-06-10T07:07:54;99524.38;;;24.54;45.65
38716;BME280;24833;49.324;8.694;2023-06-10T07:10:26;99529.94;;;24.49;46.05
38716;BME280;24833;49.324;8.694;2023-06-10T07:12:54;99517.22;;;24.39;45.79
38716;BME280;24833;49.324;8.694;2023-06-10T07:15:21;99527.63;;;24.37;45.95
38716;BME280;24833;49.324;8.694;2023-06-10T07:17:48;99526.81;;;24.37;46.05
38716;BME280;24833;49.324;8.694;2023-06-10T07:20:15;99527.03;;;24.40;46.34
38716;BME280;24833;49.324;8.694;2023-06-10T07:22:45;99522.13;;;24.42;46.63
38716;BME280;24833;49.324;8.694;2023-06-10T07:25:12;99528.09;;;24.44;46.32
38716;BME280;24833;49.324;8.694;2023-06-10T07:27:39;99519.25;;;24.29;46.27
38716;BME280;24833;49.324;8.694;2023-06-10T07:30:07;99526.59;;;24.33;46.55
38716;BME280;24833;49.324;8.694;2023-06-10T07:32:35;99515.41;;;24.30;46.17
38716;BME280;24833;49.324;8.694;2023-06-10T07:35:02;99526.00;;;24.36;46.37
38716;BME280;24833;49.324;8.694;2023-06-10T07:37:29;99520.19;;;24.43;46.49
38716;BME280;24833;49.324;8.694;2023-06-10T07:39:56;99519.59;;;24.46;46.54
38716;BME280;24833;49.324;8.694;2023-06-10T07:42:23;99523.31;;;24.55;46.83
38716;BME280;24833;49.324;8.694;2023-06-10T07:44:50;99518.88;;;24.59;46.34
38716;BME280;24833;49.324;8.694;2023-06-10T07:47:18;99518.13;;;24.72;46.76
38716;BME280;24833;49.324;8.694;2023-06-10T07:49:45;99524.63;;;24.77;46.10
38716;BME280;24833;49.324;8.694;2023-06-10T07:52:12;99523.28;;;24.74;46.13
38716;BME280;24833;49.324;8.694;2023-06-10T07:54:39;99524.84;;;24.80;46.15
38716;BME280;24833;49.324;8.694;2023-06-10T07:57:06;99516.81;;;24.89;45.87
38716;BME280;24833;49.324;8.694;2023-06-10T07:59:34;99509.13;;;24.91;45.71
38716;BME280;24833;49.324;8.694;2023-06-10T08:02:01;99513.41;;;24.97;45.96
38716;BME280;24833;49.324;8.694;2023-06-10T08:04:28;99516.34;;;25.00;45.96
38716;BME280;24833;49.324;8.694;2023-06-10T08:06:57;99514.69;;;25.05;45.85
38716;BME280;24833;49.324;8.694;2023-06-10T08:09:25;99518.97;;;25.11;45.39
38716;BME280;24833;49.324;8.694;2023-06-10T08:11:52;99518.88;;;25.16;45.30
38716;BME280;24833;49.324;8.694;2023-06-10T08:14:19;99518.78;;;25.21;45.28
38716;BME280;24833;49.324;8.694;2023-06-10T08:16:46;99522.84;;;25.23;44.90
38716;BME280;24833;49.324;8.694;2023-06-10T08:19:13;99519.50;;;25.26;45.15
38716;BME280;24833;49.324;8.694;2023-06-10T08:21:40;99518.00;;;25.34;45.25
38716;BME280;24833;49.324;8.694;2023-06-10T08:24:07;99515.50;;;25.38;45.27
38716;BME280;24833;49.324;8.694;2023-06-10T08:26:34;99520.34;;;25.41;44.84
38716;BME280;24833;49.324;8.694;2023-06-10T08:29:01;99511.34;;;25.40;45.02
38716;BME280;24833;49.324;8.694;2023-06-10T08:31:28;99514.81;;;25.46;45.32
38716;BME280;24833;49.324;8.694;2023-06-10T08:33:56;99512.63;;;25.62;43.71
38716;BME280;24833;49.324;8.694;2023-06-10T08:36:23;99508.16;;;25.66;44.17
38716;BME280;24833;49.324;8.694;2023-06-10T08:38:50;99510.53;;;25.72;44.83
38716;BME280;24833;49.324;8.694;2023-06-10T08:41:17;99513.66;;;25.79;44.69
38716;BME280;24833;49.324;8.694;2023-06-10T08:46:43;99512.47;;;25.99;43.81
38716;BME280;24833;49.324;8.694;2023-06-10T08:49:18;99514.78;;;26.06;44.24
38716;BME280;24833;49.324;8.694;2023-06-10T08:51:45;99513.00;;;26.15;44.03
38716;BME280;24833;49.324;8.694;2023-06-10T08:54:20;99514.91;;;26.28;43.62
38716;BME280;24833;49.324;8.694;2023-06-10T08:56:51;99504.34;;;26.35;43.41
38716;BME280;24833;49.324;8.694;2023-06-10T08:59:21;99511.66;;;26.40;43.43
38716;BME280;24833;49.324;8.694;2023-06-10T09:01:48;99509.84;;;26.49;42.26
38716;BME280;24833;49.324;8.694;2023-06-10T09:04:17;99505.06;;;26.55;42.96
38716;BME280;24833;49.324;8.694;2023-06-10T09:06:46;99498.84;;;26.63;41.87
38716;BME280;24833;49.324;8.694;2023-06-10T09:09:15;99495.47;;;26.66;41.85
38716;BME280;24833;49.324;8.694;2023-06-10T09:11:43;99503.09;;;26.69;42.25
38716;BME280;24833;49.324;8.694;2023-06-10T09:14:10;99497.97;;;26.76;42.89
38716;BME280;24833;49.324;8.694;2023-06-10T09:16:38;99497.25;;;26.84;43.36
38716;BME280;24833;49.324;8.694;2023-06-10T09:19:07;99498.47;;;27.01;43.28
38716;BME280;24833;49.324;8.694;2023-06-10T09:21:35;99505.38;;;27.12;43.07
38716;BME280;24833;49.324;8.694;2023-06-10T09:24:05;99499.66;;;27.22;43.15
38716;BME280;24833;49.324;8.694;2023-06-10T09:26:33;99496.28;;;27.25;41.61
38716;BME280;24833;49.324;8.694;2023-06-10T09:29:06;99500.06;;;27.38;41.54
38716;BME280;24833;49.324;8.694;2023-06-10T09:31:39;99494.75;;;27.41;42.02
38716;BME280;24833;49.324;8.694;2023-06-10T09:34:15;99491.75;;;27.52;42.50
38716;BME280;24833;49.324;8.694;2023-06-10T09:36:45;99487.63;;;27.63;42.38
38716;BME280;24833;49.324;8.694;2023-06-10T09:39:17;99491.72;;;27.74;41.43
38716;BME280;24833;49.324;8.694;2023-06-10T09:41:46;99490.78;;;27.79;41.70
38716;BME280;24833;49.324;8.694;2023-06-10T09:44:18;99495.44;;;27.78;40.81
38716;BME280;24833;49.324;8.694;2023-06-10T09:46:48;99488.69;;;27.84;41.05
38716;BME280;24833;49.324;8.694;2023-06-10T09:49:16;99488.41;;;27.94;41.51
38716;BME280;24833;49.324;8.694;2023-06-10T09:51:52;99492.81;;;28.04;40.63
38716;BME280;24833;49.324;8.694;2023-06-10T09:54:21;99487.00;;;28.06;40.33
38716;BME280;24833;49.324;8.694;2023-06-10T09:56:51;99481.84;;;28.13;41.12
38716;BME280;24833;49.324;8.694;2023-06-10T09:59:31;99479.59;;;28.23;41.23
38716;BME280;24833;49.324;8.694;2023-06-10T10:01:59;99476.91;;;28.32;41.17
38716;BME280;24833;49.324;8.694;2023-06-10T10:04:27;99468.50;;;28.37;40.30
38716;BME280;24833;49.324;8.694;2023-06-10T10:06:55;99471.41;;;28.41;40.26
38716;BME280;24833;49.324;8.694;2023-06-10T10:09:22;99467.22;;;28.43;39.41
38716;BME280;24833;49.324;8.694;2023-06-10T10:11:49;99469.00;;;28.48;39.27
38716;BME280;24833;49.324;8.694;2023-06-10T10:14:18;99455.25;;;28.48;38.41
38716;BME280;24833;49.324;8.694;2023-06-10T10:16:46;99448.31;;;28.50;39.72
38716;BME280;24833;49.324;8.694;2023-06-10T10:19:20;99463.34;;;28.62;37.82
38716;BME280;24833;49.324;8.694;2023-06-10T10:21:56;99455.09;;;28.62;37.87
38716;BME280;24833;49.324;8.694;2023-06-10T10:24:35;99459.13;;;28.73;38.03
38716;BME280;24833;49.324;8.694;2023-06-10T10:27:11;99448.78;;;28.78;35.96
38716;BME280;24833;49.324;8.694;2023-06-10T10:29:46;99447.81;;;28.83;37.89
38716;BME280;24833;49.324;8.694;2023-06-10T10:32:16;99444.13;;;28.96;38.06
38716;BME280;24833;49.324;8.694;2023-06-10T10:34:59;99440.38;;;29.10;36.94
38716;BME280;24833;49.324;8.694;2023-06-10T10:37:31;99444.56;;;29.16;36.98
38716;BME280;24833;49.324;8.694;2023-06-10T10:40:00;99443.59;;;29.12;34.42
38716;BME280;24833;49.324;8.694;2023-06-10T10:42:28;99436.81;;;29.09;36.20
38716;BME280;24833;49.324;8.694;2023-06-10T10:44:57;99445.69;;;29.23;35.33
38716;BME280;24833;49.324;8.694;2023-06-10T10:47:27;99442.59;;;29.25;36.60
38716;BME280;24833;49.324;8.694;2023-06-10T10:49:58;99437.53;;;29.36;36.78
38716;BME280;24833;49.324;8.694;2023-06-10T10:52:58;99444.63;;;29.54;34.71
38716;BME280;24833;49.324;8.694;2023-06-10T10:55:27;99428.41;;;29.61;36.21
38716;BME280;24833;49.324;8.694;2023-06-10T10:58:13;99443.41;;;29.72;35.97
38716;BME280;24833;49.324;8.694;2023-06-10T11:00:46;99439.19;;;29.75;35.74
38716;BME280;24833;49.324;8.694;2023-06-10T11:03:16;99438.03;;;29.84;35.15
38716;BME280;24833;49.324;8.694;2023-06-10T11:05:49;99434.25;;;29.89;34.33
38716;BME280;24833;49.324;8.694;2023-06-10T11:10:59;99433.84;;;29.78;31.96
38716;BME280;24833;49.324;8.694;2023-06-10T11:13:27;99431.53;;;29.51;32.82
38716;BME280;24833;49.324;8.694;2023-06-10T11:15:58;99428.09;;;29.54;32.14
38716;BME280;24833;49.324;8.694;2023-06-10T11:18:27;99436.03;;;29.55;33.28
38716;BME280;24833;49.324;8.694;2023-06-10T11:21:04;99429.09;;;29.49;33.22
38716;BME280;24833;49.324;8.694;2023-06-10T11:23:38;99423.91;;;29.56;32.98
38716;BME280;24833;49.324;8.694;2023-06-10T11:31:57;99415.16;;;29.54;31.88
38716;BME280;24833;49.324;8.694;2023-06-10T11:34:24;99412.69;;;29.62;32.11
38716;BME280;24833;49.324;8.694;2023-06-10T11:36:53;99417.50;;;29.73;33.08
38716;BME280;24833;49.324;8.694;2023-06-10T11:39:21;99408.75;;;29.71;31.52
38716;BME280;24833;49.324;8.694;2023-06-10T11:41:51;99410.13;;;29.56;31.61
38716;BME280;24833;49.324;8.694;2023-06-10T11:44:18;99410.47;;;29.46;31.43
38716;BME280;24833;49.324;8.694;2023-06-10T11:46:48;99414.19;;;29.50;31.35
38716;BME280;24833;49.324;8.694;2023-06-10T11:49:17;99413.03;;;29.60;32.15
38716;BME280;24833;49.324;8.694;2023-06-10T11:51:49;99416.34;;;29.74;31.56
38716;BME280;24833;49.324;8.694;2023-06-10T11:54:18;99411.28;;;29.85;32.74
38716;BME280;24833;49.324;8.694;2023-06-10T11:56:46;99407.00;;;29.96;32.54
38716;BME280;24833;49.324;8.694;2023-06-10T11:59:13;99410.13;;;30.16;32.04
38716;BME280;24833;49.324;8.694;2023-06-10T12:01:45;99401.84;;;30.16;30.93
38716;BME280;24833;49.324;8.694;2023-06-10T12:04:15;99395.59;;;30.06;31.01
38716;BME280;24833;49.324;8.694;2023-06-10T12:06:53;99399.88;;;30.25;30.52
38716;BME280;24833;49.324;8.694;2023-06-10T12:09:29;99406.78;;;30.31;31.64
38716;BME280;24833;49.324;8.694;2023-06-10T12:12:04;99407.97;;;30.21;30.48
38716;BME280;24833;49.324;8.694;2023-06-10T12:14:59;99402.63;;;30.25;30.49
38716;BME280;24833;49.324;8.694;2023-06-10T12:19:59;99396.84;;;30.38;31.82
38716;BME280;24833;49.324;8.694;2023-06-10T12:22:26;99413.75;;;30.49;31.82
38716;BME280;24833;49.324;8.694;2023-06-10T12:25:04;99419.44;;;30.32;29.86
38716;BME280;24833;49.324;8.694;2023-06-10T12:27:35;99408.41;;;30.11;29.98
38716;BME280;24833;49.324;8.694;2023-06-10T12:30:05;99406.09;;;30.13;30.00
38716;BME280;24833;49.324;8.694;2023-06-10T12:32:42;99403.63;;;30.20;29.90
38716;BME280;24833;49.324;8.694;2023-06-10T12:35:16;99408.56;;;30.06;29.47
38716;BME280;24833;49.324;8.694;2023-06-10T12:37:59;99401.06;;;30.15;29.75
38716;BME280;24833;49.324;8.694;2023-06-10T12:40:39;99394.75;;;30.15;30.19
38716;BME280;24833;49.324;8.694;2023-06-10T12:43:09;99402.59;;;30.04;30.49
38716;BME280;24833;49.324;8.694;2023-06-10T12:45:38;99395.78;;;30.10;30.85
38716;BME280;24833;49.324;8.694;2023-06-10T12:48:19;99405.56;;;30.20;30.75
38716;BME280;24833;49.324;8.694;2023-06-10T12:50:55;99405.38;;;30.25;30.68
38716;BME280;24833;49.324;8.694;2023-06-10T12:53:24;99410.00;;;30.33;30.93
38716;BME280;24833;49.324;8.694;2023-06-10T12:55:51;99410.09;;;30.45;30.87
38716;BME280;24833;49.324;8.694;2023-06-10T12:58:22;99397.38;;;30.53;31.05
38716;BME280;24833;49.324;8.694;2023-06-10T13:00:50;99393.59;;;30.57;31.28
38716;BME280;24833;49.324;8.694;2023-06-10T13:03:19;99400.47;;;30.51;30.04
38716;BME280;24833;49.324;8.694;2023-06-10T13:05:47;99396.66;;;30.44;30.06
38716;BME280;24833;49.324;8.694;2023-06-10T13:08:15;99396.97;;;30.42;30.83
38716;BME280;24833;49.324;8.694;2023-06-10T13:10:42;99410.44;;;30.44;30.64
38716;BME280;24833;49.324;8.694;2023-06-10T13:13:09;99390.53;;;30.38;31.02
38716;BME280;24833;49.324;8.694;2023-06-10T13:15:37;99394.25;;;30.54;31.16
38716;BME280;24833;49.324;8.694;2023-06-10T13:18:09;99391.50;;;30.54;30.54
38716;BME280;24833;49.324;8.694;2023-06-10T13:20:36;99399.78;;;30.54;30.64
38716;BME280;24833;49.324;8.694;2023-06-10T13:23:03;99401.38;;;30.55;29.36
38716;BME280;24833;49.324;8.694;2023-06-10T13:25:30;99394.09;;;30.38;30.74
38716;BME280;24833;49.324;8.694;2023-06-10T13:27:57;99388.28;;;30.52;31.03
38716;BME280;24833;49.324;8.694;2023-06-10T13:30:24;99397.50;;;30.56;31.01